sensor_id;sensor_type;location;lat;lon;timestamp;temperature;humidity
22212;DHT22;11275;52.488;13.462;2023-03-16T00:01:38;3.50;99.90
22212;DHT22;11275;52.488;13.462;2023-03-16T00:04:04;3.50;99.90
22212;DHT22;11275;52.488;13.462;2023-03-16T00:09:29;3.50;99.90
22212;DHT22;11275;52.488;13.462;2023-03-16T00:11:58;3.40;99.90
22212;DHT22;11275;52.488;13.462;2023-03-16T00:14:24;3.40;99.90
22212;DHT22;11275;52.488;13.462;2023-03-16T00:16:49;3.40;99.90
22212;DHT22;11275;52.488;13.462;2023-03-16T00:19:15;3.40;99.90
22212;DHT22;11275;52.488;13.462;2023-03-16T00:21:40;3.40;99.90
22212;DHT22;11275;52.488;13.462;2023-03-16T00:24:06;3.40;99.90
22212;DHT22;11275;52.488;13.462;2023-03-16T00:26:31;3.40;99.90
22212;DHT22;11275;52.488;13.462;2023-03-16T00:28:57;3.30;99.90
22212;DHT22;11275;52.488;13.462;2023-03-16T00:31:22;3.30;99.90
22212;DHT22;11275;52.488;13.462;2023-03-16T00:33:49;3.30;99.90
22212;DHT22;11275;52.488;13.462;2023-03-16T00:36:15;3.30;99.90
22212;DHT22;11275;52.488;13.462;2023-03-16T00:38:41;3.30;99.90
22212;DHT22;11275;52.488;13.462;2023-03-16T00:41:10;3.20;99.90
22212;DHT22;11275;52.488;13.462;2023-03-16T00:43:38;3.20;99.90
22212;DHT22;11275;52.488;13.462;2023-03-16T00:46:08;3.20;99.90
22212;DHT22;11275;52.488;13.462;2023-03-16T00:48:35;3.20;99.90
22212;DHT22;11275;52.488;13.462;2023-03-16T00:51:01;3.20;99.90
22212;DHT22;11275;52.488;13.462;2023-03-16T00:53:28;3.20;99.90
22212;DHT22;11275;52.488;13.462;2023-03-16T00:55:54;3.20;99.90
22212;DHT22;11275;52.488;13.462;2023-03-16T00:58:19;3.20;99.90
22212;DHT22;11275;52.488;13.462;2023-03-16T01:00:45;3.10;99.90
22212;DHT22;11275;52.488;13.462;2023-03-16T01:03:11;3.10;99.90
22212;DHT22;11275;52.488;13.462;2023-03-16T01:05:40;3.10;99.90
22212;DHT22;11275;52.488;13.462;2023-03-16T01:08:08;3.10;99.90
22212;DHT22;11275;52.488;13.462;2023-03-16T01:10:34;3.10;99.90
22212;DHT22;11275;52.488;13.462;2023-03-16T01:12:59;3.00;99.90
22212;DHT22;11275;52.488;13.462;2023-03-16T01:15:30;3.00;99.90
22212;DHT22;11275;52.488;13.462;2023-03-16T01:17:55;3.10;99.90
22212;DHT22;11275;52.488;13.462;2023-03-16T01:20:21;3.00;99.90
22212;DHT22;11275;52.488;13.462;2023-03-16T01:22:47;3.00;99.90
22212;DHT22;11275;52.488;13.462;2023-03-16T01:25:12;3.00;99.90
22212;DHT22;11275;52.488;13.462;2023-03-16T01:27:38;3.00;99.90
22212;DHT22;11275;52.488;13.462;2023-03-16T01:30:04;3.00;99.90
22212;DHT22;11275;52.488;13.462;2023-03-16T01:32:30;2.90;99.90
22212;DHT22;11275;52.488;13.462;2023-03-16T01:34:56;3.00;99.90
22212;DHT22;11275;52.488;13.462;2023-03-16T01:37:21;2.90;99.90
22212;DHT22;11275;52.488;13.462;2023-03-16T01:39:50;2.90;99.90
22212;DHT22;11275;52.488;13.462;2023-03-16T01:42:15;2.90;99.90
22212;DHT22;11275;52.488;13.462;2023-03-16T01:44:51;2.80;99.90
22212;DHT22;11275;52.488;13.462;2023-03-16T01:47:18;2.80;99.90
22212;DHT22;11275;52.488;13.462;2023-03-16T01:49:44;2.80;99.90
22212;DHT22;11275;52.488;13.462;2023-03-16T01:52:13;2.80;99.90
22212;DHT22;11275;52.488;13.462;2023-03-16T01:54:47;2.80;99.90
22212;DHT22;11275;52.488;13.462;2023-03-16T01:57:20;2.80;99.90
22212;DHT22;11275;52.488;13.462;2023-03-16T01:59:47;2.80;99.90
22212;DHT22;11275;52.488;13.462;2023-03-16T02:02:14;2.80;99.90
22212;DHT22;11275;52.488;13.462;2023-03-16T02:07:08;2.80;99.90
22212;DHT22;11275;52.488;13.462;2023-03-16T02:09:35;2.70;99.90
22212;DHT22;11275;52.488;13.462;2023-03-16T02:12:01;2.70;99.90
22212;DHT22;11275;52.488;13.462;2023-03-16T02:14:27;2.80;99.90
22212;DHT22;11275;52.488;13.462;2023-03-16T02:16:53;2.70;99.90
22212;DHT22;11275;52.488;13.462;2023-03-16T02:19:26;2.70;99.90
22212;DHT22;11275;52.488;13.462;2023-03-16T02:22:03;2.70;99.90
22212;DHT22;11275;52.488;13.462;2023-03-16T02:24:30;2.60;99.90
22212;DHT22;11275;52.488;13.462;2023-03-16T02:27:09;2.60;99.90
22212;DHT22;11275;52.488;13.462;2023-03-16T02:32:07;2.60;99.90
22212;DHT22;11275;52.488;13.462;2023-03-16T02:34:33;2.60;99.90
22212;DHT22;11275;52.488;13.462;2023-03-16T02:36:59;2.60;99.90
22212;DHT22;11275;52.488;13.462;2023-03-16T02:39:25;2.50;99.90
22212;DHT22;11275;52.488;13.462;2023-03-16T02:41:51;2.50;99.90
22212;DHT22;11275;52.488;13.462;2023-03-16T02:44:18;2.50;99.90
22212;DHT22;11275;52.488;13.462;2023-03-16T02:46:44;2.50;99.90
22212;DHT22;11275;52.488;13.462;2023-03-16T02:51:45;2.40;99.90
22212;DHT22;11275;52.488;13.462;2023-03-16T02:54:10;2.40;99.90
22212;DHT22;11275;52.488;13.462;2023-03-16T02:56:37;2.40;99.90
22212;DHT22;11275;52.488;13.462;2023-03-16T02:59:02;2.40;99.90
22212;DHT22;11275;52.488;13.462;2023-03-16T03:01:28;2.40;99.90
22212;DHT22;11275;52.488;13.462;2023-03-16T03:03:53;2.40;99.90
22212;DHT22;11275;52.488;13.462;2023-03-16T03:06:19;2.30;99.90
22212;DHT22;11275;52.488;13.462;2023-03-16T03:08:44;2.30;99.90
22212;DHT22;11275;52.488;13.462;2023-03-16T03:11:10;2.30;99.90
22212;DHT22;11275;52.488;13.462;2023-03-16T03:13:35;2.30;99.90
22212;DHT22;11275;52.488;13.462;2023-03-16T03:16:03;2.30;99.90
22212;DHT22;11275;52.488;13.462;2023-03-16T03:18:29;2.30;99.90
22212;DHT22;11275;52.488;13.462;2023-03-16T03:20:54;2.30;99.90
22212;DHT22;11275;52.488;13.462;2023-03-16T03:23:20;2.30;99.90
22212;DHT22;11275;52.488;13.462;2023-03-16T03:25:45;2.30;99.90
22212;DHT22;11275;52.488;13.462;2023-03-16T03:28:12;2.20;99.90
22212;DHT22;11275;52.488;13.462;2023-03-16T03:30:38;2.20;99.90
22212;DHT22;11275;52.488;13.462;2023-03-16T03:33:04;2.20;99.90
22212;DHT22;11275;52.488;13.462;2023-03-16T03:35:29;2.20;99.90
22212;DHT22;11275;52.488;13.462;2023-03-16T03:37:56;2.20;99.90
22212;DHT22;11275;52.488;13.462;2023-03-16T03:40:21;2.10;99.90
22212;DHT22;11275;52.488;13.462;2023-03-16T03:42:47;2.10;99.90
22212;DHT22;11275;52.488;13.462;2023-03-16T03:45:13;2.10;99.90
22212;DHT22;11275;52.488;13.462;2023-03-16T03:47:39;2.10;99.90
22212;DHT22;11275;52.488;13.462;2023-03-16T03:50:05;2.00;99.90
22212;DHT22;11275;52.488;13.462;2023-03-16T03:52:31;2.00;99.90
22212;DHT22;11275;52.488;13.462;2023-03-16T03:54:56;2.00;99.90
22212;DHT22;11275;52.488;13.462;2023-03-16T03:57:22;1.90;99.90
22212;DHT22;11275;52.488;13.462;2023-03-16T03:59:47;1.90;99.90
22212;DHT22;11275;52.488;13.462;2023-03-16T04:02:13;1.90;99.90
22212;DHT22;11275;52.488;13.462;2023-03-16T04:04:39;1.90;99.90
22212;DHT22;11275;52.488;13.462;2023-03-16T04:07:05;1.90;99.90
22212;DHT22;11275;52.488;13.462;2023-03-16T04:09:30;1.90;99.90
22212;DHT22;11275;52.488;13.462;2023-03-16T04:11:59;2.00;99.90
22212;DHT22;11275;52.488;13.462;2023-03-16T04:14:26;2.00;99.90
22212;DHT22;11275;52.488;13.462;2023-03-16T04:16:51;1.90;99.90
22212;DHT22;11275;52.488;13.462;2023-03-16T04:19:19;1.90;99.90
22212;DHT22;11275;52.488;13.462;2023-03-16T04:21:45;2.00;99.90
22212;DHT22;11275;52.488;13.462;2023-03-16T04:24:10;1.90;99.90
22212;DHT22;11275;52.488;13.462;2023-03-16T04:26:39;1.90;99.90
22212;DHT22;11275;52.488;13.462;2023-03-16T04:29:05;1.90;99.90
22212;DHT22;11275;52.488;13.462;2023-03-16T04:31:30;2.00;99.90
22212;DHT22;11275;52.488;13.462;2023-03-16T04:33:56;2.00;99.90
22212;DHT22;11275;52.488;13.462;2023-03-16T04:36:21;2.00;99.90
22212;DHT22;11275;52.488;13.462;2023-03-16T04:38:48;2.00;99.90
22212;DHT22;11275;52.488;13.462;2023-03-16T04:41:14;2.00;99.90
22212;DHT22;11275;52.488;13.462;2023-03-16T04:43:40;2.00;99.90
22212;DHT22;11275;52.488;13.462;2023-03-16T04:46:07;1.90;99.90
22212;DHT22;11275;52.488;13.462;2023-03-16T04:48:33;1.90;99.90
22212;DHT22;11275;52.488;13.462;2023-03-16T04:50:59;1.90;99.90
22212;DHT22;11275;52.488;13.462;2023-03-16T04:53:26;1.90;99.90
22212;DHT22;11275;52.488;13.462;2023-03-16T04:55:51;1.90;99.90
22212;DHT22;11275;52.488;13.462;2023-03-16T04:58:17;1.90;99.90
22212;DHT22;11275;52.488;13.462;2023-03-16T05:00:42;1.90;99.90
22212;DHT22;11275;52.488;13.462;2023-03-16T05:03:08;1.80;99.90
22212;DHT22;11275;52.488;13.462;2023-03-16T05:05:38;1.90;99.90
22212;DHT22;11275;52.488;13.462;2023-03-16T05:08:04;1.90;99.90
22212;DHT22;11275;52.488;13.462;2023-03-16T05:10:30;1.90;99.90
22212;DHT22;11275;52.488;13.462;2023-03-16T05:12:56;1.90;99.90
22212;DHT22;11275;52.488;13.462;2023-03-16T05:15:21;1.90;99.90
22212;DHT22;11275;52.488;13.462;2023-03-16T05:17:47;1.90;99.90
22212;DHT22;11275;52.488;13.462;2023-03-16T05:20:13;1.90;99.90
22212;DHT22;11275;52.488;13.462;2023-03-16T05:22:39;1.90;99.90
22212;DHT22;11275;52.488;13.462;2023-03-16T05:25:05;1.90;99.90
22212;DHT22;11275;52.488;13.462;2023-03-16T05:27:31;1.90;99.90
22212;DHT22;11275;52.488;13.462;2023-03-16T05:29:56;1.80;99.90
22212;DHT22;11275;52.488;13.462;2023-03-16T05:32:22;1.80;99.90
22212;DHT22;11275;52.488;13.462;2023-03-16T05:34:48;1.80;99.90
22212;DHT22;11275;52.488;13.462;2023-03-16T05:37:14;1.80;99.90
22212;DHT22;11275;52.488;13.462;2023-03-16T05:39:39;1.80;99.90
22212;DHT22;11275;52.488;13.462;2023-03-16T05:42:05;1.80;99.90
22212;DHT22;11275;52.488;13.462;2023-03-16T05:44:30;1.80;99.90
22212;DHT22;11275;52.488;13.462;2023-03-16T05:46:56;1.80;99.90
22212;DHT22;11275;52.488;13.462;2023-03-16T05:49:21;1.80;99.90
22212;DHT22;11275;52.488;13.462;2023-03-16T05:51:47;1.80;99.90
22212;DHT22;11275;52.488;13.462;2023-03-16T05:54:14;1.80;99.90
22212;DHT22;11275;52.488;13.462;2023-03-16T05:56:40;1.70;99.90
22212;DHT22;11275;52.488;13.462;2023-03-16T05:59:05;1.70;99.90
22212;DHT22;11275;52.488;13.462;2023-03-16T06:01:31;1.70;99.90
22212;DHT22;11275;52.488;13.462;2023-03-16T06:03:58;1.70;99.90
22212;DHT22;11275;52.488;13.462;2023-03-16T06:06:24;1.60;99.90
22212;DHT22;11275;52.488;13.462;2023-03-16T06:08:49;1.60;99.90
22212;DHT22;11275;52.488;13.462;2023-03-16T06:11:15;1.60;99.90
22212;DHT22;11275;52.488;13.462;2023-03-16T06:13:40;1.60;99.90
22212;DHT22;11275;52.488;13.462;2023-03-16T06:16:06;1.60;99.90
22212;DHT22;11275;52.488;13.462;2023-03-16T06:18:32;1.60;99.90
22212;DHT22;11275;52.488;13.462;2023-03-16T06:20:58;1.70;99.90
22212;DHT22;11275;52.488;13.462;2023-03-16T06:23:23;1.80;99.90
22212;DHT22;11275;52.488;13.462;2023-03-16T06:25:49;1.80;99.90
22212;DHT22;11275;52.488;13.462;2023-03-16T06:28:15;1.90;99.90
22212;DHT22;11275;52.488;13.462;2023-03-16T06:30:41;1.90;99.90
22212;DHT22;11275;52.488;13.462;2023-03-16T06:33:06;1.90;99.90
22212;DHT22;11275;52.488;13.462;2023-03-16T06:35:32;1.90;99.90
22212;DHT22;11275;52.488;13.462;2023-03-16T06:37:58;2.00;99.90
22212;DHT22;11275;52.488;13.462;2023-03-16T06:40:23;2.00;99.90
22212;DHT22;11275;52.488;13.462;2023-03-16T06:42:49;2.10;99.90
22212;DHT22;11275;52.488;13.462;2023-03-16T06:45:14;2.20;99.90
22212;DHT22;11275;52.488;13.462;2023-03-16T06:47:42;2.30;99.90
22212;DHT22;11275;52.488;13.462;2023-03-16T06:50:08;2.30;99.90
22212;DHT22;11275;52.488;13.462;2023-03-16T06:52:33;2.30;99.90
22212;DHT22;11275;52.488;13.462;2023-03-16T06:54:59;2.30;99.90
22212;DHT22;11275;52.488;13.462;2023-03-16T06:57:25;2.30;99.90
22212;DHT22;11275;52.488;13.462;2023-03-16T06:59:50;2.30;99.90
22212;DHT22;11275;52.488;13.462;2023-03-16T07:02:16;2.40;99.90
22212;DHT22;11275;52.488;13.462;2023-03-16T07:04:44;2.50;99.90
22212;DHT22;11275;52.488;13.462;2023-03-16T07:07:09;2.60;99.90
22212;DHT22;11275;52.488;13.462;2023-03-16T07:09:36;2.60;99.90
22212;DHT22;11275;52.488;13.462;2023-03-16T07:12:01;2.70;99.90
22212;DHT22;11275;52.488;13.462;2023-03-16T07:14:27;2.80;99.90
22212;DHT22;11275;52.488;13.462;2023-03-16T07:16:53;2.70;99.90
22212;DHT22;11275;52.488;13.462;2023-03-16T07:19:18;2.80;99.90
22212;DHT22;11275;52.488;13.462;2023-03-16T07:21:44;2.80;99.90
22212;DHT22;11275;52.488;13.462;2023-03-16T07:24:10;2.90;99.90
22212;DHT22;11275;52.488;13.462;2023-03-16T07:26:35;2.90;99.90
22212;DHT22;11275;52.488;13.462;2023-03-16T07:29:01;3.00;99.90
22212;DHT22;11275;52.488;13.462;2023-03-16T07:31:29;3.10;99.90
22212;DHT22;11275;52.488;13.462;2023-03-16T07:33:54;3.10;99.90
22212;DHT22;11275;52.488;13.462;2023-03-16T07:36:21;3.20;99.90
22212;DHT22;11275;52.488;13.462;2023-03-16T07:38:47;3.30;99.90
22212;DHT22;11275;52.488;13.462;2023-03-16T07:41:12;3.40;99.90
22212;DHT22;11275;52.488;13.462;2023-03-16T07:43:38;3.50;99.90
22212;DHT22;11275;52.488;13.462;2023-03-16T07:46:03;3.60;99.90
22212;DHT22;11275;52.488;13.462;2023-03-16T07:48:30;3.70;99.90
22212;DHT22;11275;52.488;13.462;2023-03-16T07:50:56;3.80;99.90
22212;DHT22;11275;52.488;13.462;2023-03-16T07:53:22;3.80;99.90
22212;DHT22;11275;52.488;13.462;2023-03-16T07:55:47;3.90;99.90
22212;DHT22;11275;52.488;13.462;2023-03-16T07:58:13;3.90;99.90
22212;DHT22;11275;52.488;13.462;2023-03-16T08:00:38;4.00;99.90
22212;DHT22;11275;52.488;13.462;2023-03-16T08:03:04;4.00;99.90
22212;DHT22;11275;52.488;13.462;2023-03-16T08:05:30;4.10;99.90
22212;DHT22;11275;52.488;13.462;2023-03-16T08:07:58;4.10;99.90
22212;DHT22;11275;52.488;13.462;2023-03-16T08:10:25;4.20;99.90
22212;DHT22;11275;52.488;13.462;2023-03-16T08:12:51;4.20;99.90
22212;DHT22;11275;52.488;13.462;2023-03-16T08:15:16;4.30;99.90
22212;DHT22;11275;52.488;13.462;2023-03-16T08:17:41;4.40;99.90
22212;DHT22;11275;52.488;13.462;2023-03-16T08:20:07;4.50;99.90
22212;DHT22;11275;52.488;13.462;2023-03-16T08:22:35;4.60;99.90
22212;DHT22;11275;52.488;13.462;2023-03-16T08:25:04;4.60;99.90
22212;DHT22;11275;52.488;13.462;2023-03-16T08:27:30;4.70;99.90
22212;DHT22;11275;52.488;13.462;2023-03-16T08:29:56;4.70;99.90
22212;DHT22;11275;52.488;13.462;2023-03-16T08:32:22;4.70;99.90
22212;DHT22;11275;52.488;13.462;2023-03-16T08:34:47;4.70;99.90
22212;DHT22;11275;52.488;13.462;2023-03-16T08:37:13;4.80;99.90
22212;DHT22;11275;52.488;13.462;2023-03-16T08:39:39;4.80;99.90
22212;DHT22;11275;52.488;13.462;2023-03-16T08:42:04;5.00;99.90
22212;DHT22;11275;52.488;13.462;2023-03-16T08:44:31;5.10;99.90
22212;DHT22;11275;52.488;13.462;2023-03-16T08:46:57;5.10;99.90
22212;DHT22;11275;52.488;13.462;2023-03-16T08:49:24;5.10;99.90
22212;DHT22;11275;52.488;13.462;2023-03-16T08:51:49;5.20;99.90
22212;DHT22;11275;52.488;13.462;2023-03-16T08:54:15;5.30;99.90
22212;DHT22;11275;52.488;13.462;2023-03-16T08:56:41;5.30;99.90
22212;DHT22;11275;52.488;13.462;2023-03-16T08:59:07;5.40;99.90
22212;DHT22;11275;52.488;13.462;2023-03-16T09:01:33;5.50;99.90
22212;DHT22;11275;52.488;13.462;2023-03-16T09:03:58;5.50;99.90
22212;DHT22;11275;52.488;13.462;2023-03-16T09:06:25;5.50;99.90
22212;DHT22;11275;52.488;13.462;2023-03-16T09:08:50;5.60;99.90
22212;DHT22;11275;52.488;13.462;2023-03-16T09:11:17;5.60;99.90
22212;DHT22;11275;52.488;13.462;2023-03-16T09:13:43;5.70;99.90
22212;DHT22;11275;52.488;13.462;2023-03-16T09:16:09;5.80;99.90
22212;DHT22;11275;52.488;13.462;2023-03-16T09:18:36;5.80;99.90
22212;DHT22;11275;52.488;13.462;2023-03-16T09:21:03;5.90;99.90
22212;DHT22;11275;52.488;13.462;2023-03-16T09:23:29;5.90;99.90
22212;DHT22;11275;52.488;13.462;2023-03-16T09:25:58;6.00;99.90
22212;DHT22;11275;52.488;13.462;2023-03-16T09:28:25;6.00;99.90
22212;DHT22;11275;52.488;13.462;2023-03-16T09:30:52;6.10;99.90
22212;DHT22;11275;52.488;13.462;2023-03-16T09:33:19;6.10;99.90
22212;DHT22;11275;52.488;13.462;2023-03-16T09:35:45;6.10;99.90
22212;DHT22;11275;52.488;13.462;2023-03-16T09:38:11;6.20;99.90
22212;DHT22;11275;52.488;13.462;2023-03-16T09:40:36;6.20;99.90
22212;DHT22;11275;52.488;13.462;2023-03-16T09:45:40;6.40;99.90
22212;DHT22;11275;52.488;13.462;2023-03-16T09:48:09;6.50;99.90
22212;DHT22;11275;52.488;13.462;2023-03-16T09:50:37;6.60;99.90
22212;DHT22;11275;52.488;13.462;2023-03-16T09:53:05;6.70;99.90
22212;DHT22;11275;52.488;13.462;2023-03-16T09:55:34;6.70;99.90
22212;DHT22;11275;52.488;13.462;2023-03-16T09:58:02;6.70;99.90
22212;DHT22;11275;52.488;13.462;2023-03-16T10:00:36;6.80;99.90
22212;DHT22;11275;52.488;13.462;2023-03-16T10:05:29;6.80;99.90
22212;DHT22;11275;52.488;13.462;2023-03-16T10:10:46;6.90;99.90
22212;DHT22;11275;52.488;13.462;2023-03-16T10:15:45;7.10;98.50
22212;DHT22;11275;52.488;13.462;2023-03-16T10:18:16;7.10;99.70
22212;DHT22;11275;52.488;13.462;2023-03-16T10:20:43;7.20;99.10
22212;DHT22;11275;52.488;13.462;2023-03-16T10:23:19;7.20;99.90
22212;DHT22;11275;52.488;13.462;2023-03-16T10:25:46;7.30;98.60
22212;DHT22;11275;52.488;13.462;2023-03-16T10:28:14;7.30;98.70
22212;DHT22;11275;52.488;13.462;2023-03-16T10:30:40;7.40;98.70
22212;DHT22;11275;52.488;13.462;2023-03-16T10:38:59;7.60;97.90
22212;DHT22;11275;52.488;13.462;2023-03-16T10:44:00;7.60;98.40
22212;DHT22;11275;52.488;13.462;2023-03-16T10:46:38;7.60;96.30
22212;DHT22;11275;52.488;13.462;2023-03-16T10:49:04;7.70;96.50
22212;DHT22;11275;52.488;13.462;2023-03-16T10:51:31;7.70;96.20
22212;DHT22;11275;52.488;13.462;2023-03-16T10:54:26;7.80;97.30
22212;DHT22;11275;52.488;13.462;2023-03-16T10:56:44;7.80;96.30
22212;DHT22;11275;52.488;13.462;2023-03-16T11:01:52;8.00;94.50
22212;DHT22;11275;52.488;13.462;2023-03-16T11:04:18;8.00;96.90
22212;DHT22;11275;52.488;13.462;2023-03-16T11:07:01;8.00;95.70
22212;DHT22;11275;52.488;13.462;2023-03-16T11:09:33;8.00;95.40
22212;DHT22;11275;52.488;13.462;2023-03-16T11:11:59;8.10;95.50
22212;DHT22;11275;52.488;13.462;2023-03-16T11:14:26;8.20;96.20
22212;DHT22;11275;52.488;13.462;2023-03-16T11:16:56;8.10;92.30
22212;DHT22;11275;52.488;13.462;2023-03-16T11:19:25;8.10;94.90
22212;DHT22;11275;52.488;13.462;2023-03-16T11:27:14;8.30;95.10
22212;DHT22;11275;52.488;13.462;2023-03-16T11:32:10;8.40;94.20
22212;DHT22;11275;52.488;13.462;2023-03-16T11:34:37;8.40;93.60
22212;DHT22;11275;52.488;13.462;2023-03-16T11:44:54;8.60;91.80
22212;DHT22;11275;52.488;13.462;2023-03-16T11:57:48;8.60;91.20
22212;DHT22;11275;52.488;13.462;2023-03-16T12:11:10;8.90;91.20
22212;DHT22;11275;52.488;13.462;2023-03-16T12:13:37;8.80;90.10
22212;DHT22;11275;52.488;13.462;2023-03-16T12:16:31;8.90;91.10
22212;DHT22;11275;52.488;13.462;2023-03-16T12:18:55;8.90;90.50
22212;DHT22;11275;52.488;13.462;2023-03-16T12:21:32;9.00;89.80
22212;DHT22;11275;52.488;13.462;2023-03-16T12:24:02;8.90;90.80
22212;DHT22;11275;52.488;13.462;2023-03-16T12:26:30;8.90;89.70
22212;DHT22;11275;52.488;13.462;2023-03-16T12:28:56;9.00;89.40
22212;DHT22;11275;52.488;13.462;2023-03-16T12:38:58;9.10;88.70
22212;DHT22;11275;52.488;13.462;2023-03-16T12:44:14;9.00;87.70
22212;DHT22;11275;52.488;13.462;2023-03-16T12:49:07;9.10;85.20
22212;DHT22;11275;52.488;13.462;2023-03-16T12:51:37;9.10;88.20
22212;DHT22;11275;52.488;13.462;2023-03-16T12:54:04;9.20;87.50
22212;DHT22;11275;52.488;13.462;2023-03-16T12:58:57;9.30;88.50
22212;DHT22;11275;52.488;13.462;2023-03-16T13:01:40;9.30;85.40
22212;DHT22;11275;52.488;13.462;2023-03-16T13:04:08;9.30;81.30
22212;DHT22;11275;52.488;13.462;2023-03-16T13:06:35;9.30;76.50
22212;DHT22;11275;52.488;13.462;2023-03-16T13:09:01;9.30;76.90
22212;DHT22;11275;52.488;13.462;2023-03-16T13:11:38;9.30;79.80
22212;DHT22;11275;52.488;13.462;2023-03-16T13:14:06;9.30;80.10
22212;DHT22;11275;52.488;13.462;2023-03-16T13:16:33;9.40;80.40
22212;DHT22;11275;52.488;13.462;2023-03-16T13:21:42;9.40;78.90
22212;DHT22;11275;52.488;13.462;2023-03-16T13:26:52;9.30;72.90
22212;DHT22;11275;52.488;13.462;2023-03-16T13:29:19;9.40;76.90
22212;DHT22;11275;52.488;13.462;2023-03-16T13:31:45;9.30;72.90
22212;DHT22;11275;52.488;13.462;2023-03-16T13:34:12;9.30;76.90
22212;DHT22;11275;52.488;13.462;2023-03-16T13:36:38;9.30;79.60
22212;DHT22;11275;52.488;13.462;2023-03-16T13:39:12;9.40;78.90
22212;DHT22;11275;52.488;13.462;2023-03-16T13:41:39;9.40;76.80
22212;DHT22;11275;52.488;13.462;2023-03-16T13:44:10;9.50;77.80
22212;DHT22;11275;52.488;13.462;2023-03-16T13:46:36;9.50;75.40
22212;DHT22;11275;52.488;13.462;2023-03-16T13:49:03;9.60;77.20
22212;DHT22;11275;52.488;13.462;2023-03-16T13:51:28;9.50;75.90
22212;DHT22;11275;52.488;13.462;2023-03-16T13:53:55;9.50;77.80
22212;DHT22;11275;52.488;13.462;2023-03-16T13:56:21;9.50;78.90
22212;DHT22;11275;52.488;13.462;2023-03-16T13:58:48;9.50;78.00
22212;DHT22;11275;52.488;13.462;2023-03-16T14:01:23;9.60;77.90
22212;DHT22;11275;52.488;13.462;2023-03-16T14:03:50;9.60;71.80
22212;DHT22;11275;52.488;13.462;2023-03-16T14:06:19;9.60;78.70
22212;DHT22;11275;52.488;13.462;2023-03-16T14:08:46;9.60;74.90
22212;DHT22;11275;52.488;13.462;2023-03-16T14:11:13;9.60;74.30
22212;DHT22;11275;52.488;13.462;2023-03-16T14:13:39;9.60;75.90
22212;DHT22;11275;52.488;13.462;2023-03-16T14:16:09;9.70;69.90
22212;DHT22;11275;52.488;13.462;2023-03-16T14:18:38;9.60;67.80
22212;DHT22;11275;52.488;13.462;2023-03-16T14:21:08;9.60;69.40
22212;DHT22;11275;52.488;13.462;2023-03-16T14:23:35;9.70;74.40
22212;DHT22;11275;52.488;13.462;2023-03-16T14:26:03;9.70;66.70
22212;DHT22;11275;52.488;13.462;2023-03-16T14:28:31;9.80;69.80
22212;DHT22;11275;52.488;13.462;2023-03-16T14:33:32;9.80;68.80
22212;DHT22;11275;52.488;13.462;2023-03-16T14:35:59;9.90;65.40
22212;DHT22;11275;52.488;13.462;2023-03-16T14:38:32;9.90;65.50
22212;DHT22;11275;52.488;13.462;2023-03-16T14:43:45;10.00;69.40
22212;DHT22;11275;52.488;13.462;2023-03-16T14:46:12;10.00;67.60
22212;DHT22;11275;52.488;13.462;2023-03-16T14:48:39;10.10;68.80
22212;DHT22;11275;52.488;13.462;2023-03-16T14:51:05;10.10;65.60
22212;DHT22;11275;52.488;13.462;2023-03-16T14:53:33;10.10;66.30
22212;DHT22;11275;52.488;13.462;2023-03-16T14:55:58;10.30;65.30
22212;DHT22;11275;52.488;13.462;2023-03-16T14:58:25;10.20;61.80
22212;DHT22;11275;52.488;13.462;2023-03-16T15:00:51;10.20;60.60
22212;DHT22;11275;52.488;13.462;2023-03-16T15:03:19;10.20;64.00
22212;DHT22;11275;52.488;13.462;2023-03-16T15:05:46;10.20;61.40
22212;DHT22;11275;52.488;13.462;2023-03-16T15:08:13;10.20;62.30
22212;DHT22;11275;52.488;13.462;2023-03-16T15:10:40;10.30;62.20
22212;DHT22;11275;52.488;13.462;2023-03-16T15:13:10;10.30;61.20
22212;DHT22;11275;52.488;13.462;2023-03-16T15:15:38;10.30;61.60
22212;DHT22;11275;52.488;13.462;2023-03-16T15:18:04;10.30;60.20
22212;DHT22;11275;52.488;13.462;2023-03-16T15:20:33;10.30;62.90
22212;DHT22;11275;52.488;13.462;2023-03-16T15:23:00;10.30;60.30
22212;DHT22;11275;52.488;13.462;2023-03-16T15:28:01;10.30;61.50
22212;DHT22;11275;52.488;13.462;2023-03-16T15:30:27;10.30;60.20
22212;DHT22;11275;52.488;13.462;2023-03-16T15:32:54;10.40;62.70
22212;DHT22;11275;52.488;13.462;2023-03-16T15:35:20;10.50;61.90
22212;DHT22;11275;52.488;13.462;2023-03-16T15:37:46;10.60;59.70
22212;DHT22;11275;52.488;13.462;2023-03-16T15:42:40;10.50;61.20
22212;DHT22;11275;52.488;13.462;2023-03-16T15:45:13;10.60;62.70
22212;DHT22;11275;52.488;13.462;2023-03-16T15:47:39;10.60;61.60
22212;DHT22;11275;52.488;13.462;2023-03-16T15:50:05;10.70;61.00
22212;DHT22;11275;52.488;13.462;2023-03-16T15:52:33;10.70;61.30
22212;DHT22;11275;52.488;13.462;2023-03-16T15:54:59;10.80;59.90
22212;DHT22;11275;52.488;13.462;2023-03-16T15:57:29;10.80;60.80
22212;DHT22;11275;52.488;13.462;2023-03-16T15:59:56;10.90;57.10
22212;DHT22;11275;52.488;13.462;2023-03-16T16:02:25;10.90;55.50
22212;DHT22;11275;52.488;13.462;2023-03-16T16:04:52;10.70;57.20
22212;DHT22;11275;52.488;13.462;2023-03-16T16:07:18;10.60;54.70
22212;DHT22;11275;52.488;13.462;2023-03-16T16:09:43;10.50;54.40
22212;DHT22;11275;52.488;13.462;2023-03-16T16:12:10;10.60;56.10
22212;DHT22;11275;52.488;13.462;2023-03-16T16:14:36;10.50;53.90
22212;DHT22;11275;52.488;13.462;2023-03-16T16:17:02;10.40;56.70
22212;DHT22;11275;52.488;13.462;2023-03-16T16:19:28;10.20;54.40
22212;DHT22;11275;52.488;13.462;2023-03-16T16:21:54;10.10;55.80
22212;DHT22;11275;52.488;13.462;2023-03-16T16:24:20;10.00;57.90
22212;DHT22;11275;52.488;13.462;2023-03-16T16:26:46;10.00;58.30
22212;DHT22;11275;52.488;13.462;2023-03-16T16:29:14;10.20;58.90
22212;DHT22;11275;52.488;13.462;2023-03-16T16:31:40;10.10;58.90
22212;DHT22;11275;52.488;13.462;2023-03-16T16:34:13;10.10;58.50
22212;DHT22;11275;52.488;13.462;2023-03-16T16:36:39;9.90;58.30
22212;DHT22;11275;52.488;13.462;2023-03-16T16:39:04;9.80;59.40
22212;DHT22;11275;52.488;13.462;2023-03-16T16:41:31;9.80;60.30
22212;DHT22;11275;52.488;13.462;2023-03-16T16:43:57;9.70;58.80
22212;DHT22;11275;52.488;13.462;2023-03-16T16:46:24;9.70;60.10
22212;DHT22;11275;52.488;13.462;2023-03-16T16:51:22;9.70;60.60
22212;DHT22;11275;52.488;13.462;2023-03-16T16:53:49;9.60;59.20
22212;DHT22;11275;52.488;13.462;2023-03-16T16:56:16;9.50;60.80
22212;DHT22;11275;52.488;13.462;2023-03-16T16:58:43;9.50;58.90
22212;DHT22;11275;52.488;13.462;2023-03-16T17:01:13;9.40;60.60
22212;DHT22;11275;52.488;13.462;2023-03-16T17:03:40;9.30;60.30
22212;DHT22;11275;52.488;13.462;2023-03-16T17:06:08;9.30;60.30
22212;DHT22;11275;52.488;13.462;2023-03-16T17:08:39;9.20;59.70
22212;DHT22;11275;52.488;13.462;2023-03-16T17:11:05;9.10;59.90